Weather History for Alpine, TX

Change the Weather History Date:

Friday, November 30, 2012

  Actual Average (KMRF) Record (KMRF)
Temperature  
Mean Temperature 62 °F -  
Max Temperature 76 °F 58 °F 73 °F (2012)
Min Temperature 48 °F 29 °F 15 °F (2010)
Degree Days  
Heating Degree Days 3    
Growing Degree Days 12 (Base 50)    
Moisture  
Dew Point 33 °F    
Average Humidity 38    
Maximum Humidity 60    
Minimum Humidity 17    
Precipitation  
Precipitation 0.00 in - - ()
Sea Level Pressure  
Sea Level Pressure 30.23 in    
Wind  
Wind Speed 7 mph (SSW)    
Max Wind Speed 16 mph    
Max Gust Speed 23 mph    
Visibility 10 miles    
Events      
Averages and records for this station are not official NWS values.
T = Trace of Precipitation, MM = Missing Value Source: NWS Daily Summary

Daily Weather History Graph

Daily Weather History Graph

Search for Another Location

Airport:

Trip Planner

Search our weather history database for the weather conditions in past years. The results will help you decide how hot, cold, wet, or windy it might be!

Date:

Astronomy

Nov. 30, 2012 Rise Set
Actual Time 7:33 AM CST 5:53 PM CST
Civil Twilight 7:07 AM CST 6:19 PM CST
Nautical Twilight 6:37 AM CST 6:49 PM CST
Astronomical Twilight 6:08 AM CST 7:18 PM CST
Moon 7:49 PM CST (11/30) 9:07 AM CST (11/30)
Length of Visible Light 11h 12m
Length of Day
10h 20m
Waning Gibbous, 96% of the Moon is Illuminated
Nov 30
Waning Gibbous
Dec 6
Last Quarter
Dec 13
New
Dec 19
First Quarter
Dec 28
Full

Hourly Weather History & Observations

Time (CST) Temp. Dew Point Humidity Pressure Visibility Wind Dir Wind Speed Gust Speed Precip Events Conditions
12:15 AM 51.6 °F 32.4 °F 48% 30.24 in 10.0 mi Calm Calm - N/A   Clear
12:35 AM 49.8 °F 32.4 °F 51% 30.24 in 10.0 mi South 4.6 mph - N/A   Clear
12:55 AM 49.5 °F 32.5 °F 52% 30.24 in 10.0 mi SW 11.5 mph - N/A   Clear
1:15 AM 52.2 °F 32.9 °F 48% 30.24 in 10.0 mi West 10.4 mph - N/A   Clear
1:35 AM 51.4 °F 32.9 °F 49% 30.24 in 10.0 mi Calm Calm - N/A   Clear
1:55 AM 50.7 °F 32.9 °F 51% 30.24 in 10.0 mi Calm Calm - N/A   Clear
2:15 AM 49.5 °F 32.5 °F 52% 30.24 in 10.0 mi Calm Calm - N/A   Clear
2:35 AM 50.4 °F 32.7 °F 51% 30.24 in 10.0 mi Calm Calm - N/A   Clear
2:55 AM 53.4 °F 32.7 °F 45% 30.25 in 10.0 mi SW 8.1 mph - N/A   Clear
3:15 AM 51.6 °F 32.9 °F 49% 30.25 in 10.0 mi SSW 10.4 mph - N/A   Clear
3:35 AM 53.1 °F 33.3 °F 47% 30.25 in 10.0 mi SSW 11.5 mph - N/A   Clear
3:55 AM 53.1 °F 33.4 °F 47% 30.24 in 10.0 mi SSW 11.5 mph - N/A   Clear
4:15 AM 52.9 °F 33.8 °F 48% 30.24 in 10.0 mi SSW 10.4 mph - N/A   Clear
4:35 AM 51.8 °F 34.3 °F 51% 30.24 in 10.0 mi SSW 9.2 mph - N/A   Clear
4:55 AM 52.5 °F 34.7 °F 51% 30.24 in 10.0 mi SSW 9.2 mph - N/A   Clear
5:15 AM 53.1 °F 35.1 °F 50% 30.24 in 10.0 mi South 9.2 mph - N/A   Clear
5:35 AM 53.1 °F 35.6 °F 52% 30.24 in 10.0 mi SSW 9.2 mph - N/A   Clear
5:55 AM 50.9 °F 35.2 °F 55% 30.24 in 10.0 mi Calm Calm - N/A   Clear
6:15 AM 51.4 °F 35.6 °F 55% 30.24 in 10.0 mi South 8.1 mph - N/A   Clear
6:35 AM 54.1 °F 36.1 °F 51% 30.25 in 10.0 mi South 8.1 mph - N/A   Clear
6:55 AM 52.3 °F 36.0 °F 54% 30.25 in 10.0 mi Calm Calm - N/A   Clear
7:15 AM 50.4 °F 35.6 °F 57% 30.26 in 10.0 mi South 5.8 mph - N/A   Clear
7:35 AM 49.3 °F 35.4 °F 59% 30.26 in 10.0 mi SSW 9.2 mph - N/A   Clear
7:55 AM 48.6 °F 35.1 °F 60% 30.27 in 10.0 mi SW 8.1 mph - N/A   Clear
8:15 AM 52.2 °F 35.4 °F 53% 30.27 in 10.0 mi South 6.9 mph - N/A   Clear
8:35 AM 55.6 °F 36.3 °F 48% 30.27 in 10.0 mi South 8.1 mph - N/A   Clear
8:55 AM 59.0 °F 36.1 °F 42% 30.27 in 10.0 mi SSW 6.9 mph - N/A   Clear
9:15 AM 61.9 °F 35.4 °F 37% 30.28 in 10.0 mi SSW 8.1 mph - N/A   Clear
9:35 AM 63.7 °F 34.9 °F 34% 30.28 in 10.0 mi SSW 11.5 mph - N/A   Clear
9:55 AM 65.5 °F 33.6 °F 31% 30.28 in 10.0 mi SSW 12.7 mph - N/A   Clear
10:15 AM 66.6 °F 33.4 °F 29% 30.28 in 10.0 mi SSW 10.4 mph - N/A   Clear
10:35 AM 67.5 °F 33.8 °F 29% 30.28 in 10.0 mi SW 6.9 mph - N/A   Clear
10:55 AM 68.9 °F 33.4 °F 27% 30.28 in 10.0 mi South 9.2 mph - N/A   Clear
11:15 AM 70.2 °F 32.5 °F 25% 30.28 in 10.0 mi South 10.4 mph - N/A   Clear
11:35 AM 71.6 °F 32.0 °F 23% 30.27 in 10.0 mi SSW 12.7 mph 19.6 mph N/A   Clear
11:55 AM 72.3 °F 31.8 °F 22% 30.27 in 10.0 mi SW 13.8 mph 17.3 mph N/A   Clear
12:15 PM 72.3 °F 32.0 °F 23% 30.26 in 10.0 mi SSW 15.0 mph 18.4 mph N/A   Clear
12:35 PM 73.4 °F 31.6 °F 22% 30.25 in 10.0 mi SSW 16.1 mph 21.9 mph N/A   Clear
12:55 PM 73.2 °F 31.8 °F 22% 30.24 in 10.0 mi SW 16.1 mph 23.0 mph N/A   Clear
1:15 PM 74.1 °F 31.6 °F 21% 30.23 in 10.0 mi SW 13.8 mph 21.9 mph N/A   Clear
1:35 PM 74.7 °F 31.5 °F 20% 30.21 in 10.0 mi SW 16.1 mph 20.7 mph N/A   Clear
1:55 PM 75.2 °F 31.8 °F 20% 30.20 in 10.0 mi SSW 11.5 mph 20.7 mph N/A   Clear
2:15 PM 75.6 °F 32.2 °F 20% 30.19 in 10.0 mi SSW 13.8 mph 19.6 mph N/A   Clear
2:35 PM 75.9 °F 31.8 °F 20% 30.19 in 10.0 mi SW 15.0 mph 19.6 mph N/A   Clear
2:55 PM 76.3 °F 30.2 °F 18% 30.18 in 10.0 mi WSW 12.7 mph 21.9 mph N/A   Clear
3:15 PM 76.5 °F 29.1 °F 18% 30.17 in 10.0 mi SW 11.5 mph 19.6 mph N/A   Clear
3:35 PM 76.3 °F 28.4 °F 17% 30.17 in 10.0 mi West 15.0 mph - N/A   Clear
3:55 PM 75.7 °F 28.0 °F 17% 30.17 in 10.0 mi SW 13.8 mph 21.9 mph N/A   Clear
4:15 PM 75.6 °F 28.0 °F 17% 30.17 in 10.0 mi WSW 10.4 mph 19.6 mph N/A   Clear
4:35 PM 74.8 °F 28.0 °F 18% 30.17 in 10.0 mi WSW 11.5 mph 19.6 mph N/A   Clear
4:55 PM 74.1 °F 27.9 °F 18% 30.17 in 10.0 mi WSW 9.2 mph - N/A   Clear
5:15 PM 72.9 °F 28.9 °F 20% 30.18 in 10.0 mi SW 6.9 mph - N/A   Clear
5:35 PM 71.1 °F 30.0 °F 22% 30.19 in 10.0 mi WSW 6.9 mph - N/A   Clear
5:55 PM 68.0 °F 31.1 °F 25% 30.19 in 10.0 mi WSW 4.6 mph - N/A   Clear
6:15 PM 67.1 °F 31.1 °F 26% 30.19 in 10.0 mi SSW 3.5 mph - N/A   Clear
6:35 PM 64.2 °F 30.7 °F 29% 30.19 in 10.0 mi Calm Calm - N/A   Clear
6:55 PM 65.1 °F 31.3 °F 28% 30.19 in 10.0 mi SE 4.6 mph - N/A   Clear
7:15 PM 61.7 °F 30.2 °F 30% 30.19 in 10.0 mi SSE 9.2 mph - N/A   Clear
7:35 PM 57.6 °F 30.0 °F 35% 30.19 in 10.0 mi South 9.2 mph - N/A   Clear
7:55 PM 55.2 °F 30.6 °F 39% 30.20 in 10.0 mi South 10.4 mph - N/A   Clear
8:15 PM 54.9 °F 31.3 °F 41% 30.20 in 10.0 mi South 10.4 mph - N/A   Clear
8:35 PM 56.8 °F 32.0 °F 39% 30.20 in 10.0 mi South 10.4 mph - N/A   Clear
9:15 PM 54.7 °F 32.9 °F 44% 30.21 in 10.0 mi SSW 9.2 mph - N/A   Clear
9:35 PM 51.8 °F 33.4 °F 50% 30.21 in 10.0 mi SW 6.9 mph - N/A   Clear
9:55 PM 52.9 °F 34.2 °F 49% 30.22 in 10.0 mi SW 4.6 mph - N/A   Clear
10:15 PM 55.4 °F 35.2 °F 47% 30.21 in 10.0 mi SSW 5.8 mph - N/A   Clear
10:35 PM 57.9 °F 35.8 °F 44% 30.22 in 10.0 mi SSW 5.8 mph - N/A   Clear
11:15 PM 57.7 °F 36.1 °F 44% 30.22 in 10.0 mi SSW 4.6 mph - N/A   Clear
11:35 PM 58.1 °F 36.0 °F 44% 30.22 in 10.0 mi SW 5.8 mph - N/A   Clear
11:55 PM 54.9 °F 35.6 °F 48% 30.21 in 10.0 mi SSW 9.2 mph - N/A   Clear